createdAt,value
2017-12-29T00:00:14.669Z,12.37
2017-12-29T00:02:41.404Z,13.47
2017-12-29T00:05:08.117Z,13.27
2017-12-29T00:07:34.845Z,15.73
2017-12-29T00:10:01.568Z,12.73
2017-12-29T00:12:28.277Z,11.23
2017-12-29T00:14:54.981Z,11.77
2017-12-29T00:17:21.723Z,13.03
2017-12-29T00:19:48.448Z,10.90
2017-12-29T00:22:15.172Z,10.90
2017-12-29T00:24:41.919Z,11.03
2017-12-29T00:27:08.634Z,9.70
2017-12-29T00:29:35.350Z,8.07
2017-12-29T00:32:02.082Z,8.23
2017-12-29T00:34:28.797Z,8.93
2017-12-29T00:36:55.512Z,7.40
2017-12-29T00:39:22.238Z,2.00
2017-12-29T00:41:48.951Z,1.60
2017-12-29T00:44:15.654Z,0.90
2017-12-29T00:46:42.369Z,0.90
2017-12-29T00:49:09.081Z,0.70
2017-12-29T00:51:35.784Z,0.70
2017-12-29T00:54:02.554Z,0.80
2017-12-29T00:56:29.259Z,0.50
2017-12-29T00:58:55.966Z,0.83
2017-12-29T01:01:22.706Z,0.70
2017-12-29T01:03:49.407Z,0.57
2017-12-29T01:06:16.129Z,0.80
2017-12-29T01:08:42.850Z,0.80
2017-12-29T01:11:09.576Z,0.60
2017-12-29T01:13:36.274Z,0.77
2017-12-29T01:16:02.988Z,0.67
2017-12-29T01:18:29.695Z,1.37
2017-12-29T01:20:56.429Z,0.63
2017-12-29T01:23:23.161Z,0.57
2017-12-29T01:25:49.869Z,0.83
2017-12-29T01:28:16.578Z,0.70
2017-12-29T01:30:43.316Z,1.27
2017-12-29T01:33:10.022Z,1.53
2017-12-29T01:35:36.728Z,0.80
2017-12-29T01:38:03.482Z,0.73
2017-12-29T01:40:30.190Z,0.80
2017-12-29T01:42:56.909Z,1.47
2017-12-29T01:45:23.663Z,0.50
2017-12-29T01:47:58.273Z,0.70
2017-12-29T01:50:24.992Z,0.70
2017-12-29T01:52:51.690Z,1.87
2017-12-29T01:55:18.397Z,0.50
2017-12-29T01:57:45.116Z,0.70
2017-12-29T02:00:11.849Z,0.90
2017-12-29T02:02:38.561Z,0.70
2017-12-29T02:05:05.312Z,0.80
2017-12-29T02:07:32.025Z,0.73
2017-12-29T02:09:58.725Z,1.60
2017-12-29T02:12:25.451Z,1.03
2017-12-29T02:14:52.178Z,1.57
2017-12-29T02:17:18.881Z,0.90
2017-12-29T02:19:45.609Z,1.77
2017-12-29T02:22:12.315Z,1.20
2017-12-29T02:24:39.036Z,1.10
2017-12-29T02:27:05.769Z,0.60
2017-12-29T02:29:32.478Z,0.83
2017-12-29T02:31:59.178Z,0.77
2017-12-29T02:34:25.910Z,4.30
2017-12-29T02:36:52.628Z,1.63
2017-12-29T02:39:19.343Z,0.70
2017-12-29T02:41:46.090Z,0.90
2017-12-29T02:44:12.814Z,1.20
2017-12-29T02:46:39.544Z,1.80
2017-12-29T02:49:06.298Z,1.10
2017-12-29T02:51:33.009Z,1.10
2017-12-29T02:53:59.712Z,1.00
2017-12-29T02:56:26.444Z,0.83
2017-12-29T02:58:53.155Z,1.00
2017-12-29T03:01:19.866Z,1.90
2017-12-29T03:03:46.582Z,0.80
2017-12-29T03:06:13.292Z,1.00
2017-12-29T03:08:40.005Z,0.70
2017-12-29T03:11:06.736Z,0.83
2017-12-29T03:13:33.446Z,0.93
2017-12-29T03:16:00.147Z,1.13
2017-12-29T03:18:26.868Z,0.90
2017-12-29T03:20:53.578Z,0.87
2017-12-29T03:23:20.286Z,0.97
2017-12-29T03:25:47.000Z,0.80
2017-12-29T03:28:13.734Z,0.70
2017-12-29T03:30:40.438Z,0.77
2017-12-29T03:33:07.156Z,0.83
2017-12-29T03:35:33.893Z,1.63
2017-12-29T03:38:00.599Z,0.70
2017-12-29T03:40:27.316Z,3.80
2017-12-29T03:42:54.018Z,0.73
2017-12-29T03:45:20.724Z,0.70
2017-12-29T03:47:47.458Z,0.90
2017-12-29T03:50:14.209Z,1.20
2017-12-29T03:52:40.917Z,3.30
2017-12-29T03:55:07.641Z,2.27
2017-12-29T03:57:34.348Z,1.60
2017-12-29T04:00:01.050Z,1.10
2017-12-29T04:02:27.807Z,1.10
2017-12-29T04:04:54.515Z,0.97
2017-12-29T04:07:21.218Z,0.93
2017-12-29T04:09:47.926Z,1.23
2017-12-29T04:12:14.697Z,1.10
2017-12-29T04:14:41.408Z,1.10
2017-12-29T04:17:08.140Z,1.47
2017-12-29T04:19:34.850Z,0.77
2017-12-29T04:22:01.577Z,1.00
2017-12-29T04:24:28.286Z,1.33
2017-12-29T04:26:54.996Z,1.60
2017-12-29T04:29:21.726Z,0.90
2017-12-29T04:31:48.447Z,0.80
2017-12-29T04:34:16.073Z,4.23
2017-12-29T04:36:42.780Z,1.27
2017-12-29T04:39:09.503Z,0.83
2017-12-29T04:41:36.210Z,1.23
2017-12-29T04:44:02.915Z,1.30
2017-12-29T04:46:29.635Z,0.97
2017-12-29T04:48:56.356Z,1.00
2017-12-29T04:51:23.063Z,0.80
2017-12-29T04:53:49.790Z,1.10
2017-12-29T04:56:16.503Z,1.10
2017-12-29T04:58:43.221Z,1.13
2017-12-29T05:01:09.946Z,1.00
2017-12-29T05:03:36.644Z,2.00
2017-12-29T05:06:03.366Z,1.03
2017-12-29T05:08:30.085Z,1.80
2017-12-29T05:10:57.119Z,1.97
2017-12-29T05:13:23.832Z,1.73
2017-12-29T05:15:50.574Z,0.93
2017-12-29T05:18:17.275Z,2.50
2017-12-29T05:20:43.978Z,1.00
2017-12-29T05:23:10.697Z,1.50
2017-12-29T05:25:37.399Z,0.93
2017-12-29T05:28:04.139Z,1.20
2017-12-29T05:30:30.857Z,0.90
2017-12-29T05:32:57.560Z,1.20
2017-12-29T05:35:24.266Z,1.10
2017-12-29T05:37:51.019Z,1.47
2017-12-29T05:40:17.733Z,1.53
2017-12-29T05:42:44.450Z,0.87
2017-12-29T05:45:11.192Z,0.83
2017-12-29T05:47:37.891Z,1.33
2017-12-29T05:50:04.604Z,2.33
2017-12-29T05:52:31.357Z,1.23
2017-12-29T05:54:58.101Z,2.00
2017-12-29T05:57:24.845Z,0.97
2017-12-29T05:59:51.574Z,0.83
2017-12-29T06:02:18.280Z,1.17
2017-12-29T06:04:44.991Z,3.27
2017-12-29T06:07:11.718Z,0.70
2017-12-29T06:09:38.426Z,0.80
2017-12-29T06:12:05.140Z,1.00
2017-12-29T06:14:31.862Z,1.17
2017-12-29T06:16:58.591Z,1.23
2017-12-29T06:19:25.292Z,1.33
2017-12-29T06:21:52.011Z,1.00
2017-12-29T06:24:18.733Z,1.30
2017-12-29T06:26:45.436Z,1.37
2017-12-29T06:29:12.183Z,0.90
2017-12-29T06:31:38.882Z,1.60
2017-12-29T06:34:06.197Z,1.20
2017-12-29T06:36:32.949Z,1.77
2017-12-29T06:38:59.690Z,1.40
2017-12-29T06:41:26.401Z,1.23
2017-12-29T06:43:53.123Z,1.70
2017-12-29T06:46:19.845Z,3.60
2017-12-29T06:48:46.545Z,2.60
2017-12-29T06:51:13.294Z,1.07
2017-12-29T06:53:39.993Z,1.50
2017-12-29T06:56:06.705Z,1.30
2017-12-29T06:58:33.546Z,1.83
2017-12-29T07:01:00.289Z,1.63
2017-12-29T07:03:27.023Z,2.03
2017-12-29T07:05:53.758Z,1.20
2017-12-29T07:08:20.510Z,1.73
2017-12-29T07:10:47.219Z,1.23
2017-12-29T07:13:31.379Z,1.60
2017-12-29T07:16:16.045Z,1.03
2017-12-29T07:18:42.801Z,1.00
2017-12-29T07:21:09.526Z,1.27
2017-12-29T07:23:36.234Z,1.73
2017-12-29T07:26:02.983Z,1.40
2017-12-29T07:28:29.700Z,2.77
2017-12-29T07:30:56.415Z,1.80
2017-12-29T07:33:23.154Z,0.83
2017-12-29T07:35:49.867Z,0.90
2017-12-29T07:38:16.575Z,0.80
2017-12-29T07:40:43.295Z,2.30
2017-12-29T07:43:10.021Z,1.20
2017-12-29T07:45:36.727Z,2.30
2017-12-29T07:48:03.451Z,1.27
2017-12-29T07:50:30.182Z,0.97
2017-12-29T07:52:56.902Z,0.97
2017-12-29T07:55:23.604Z,1.40
2017-12-29T07:57:50.317Z,1.60
2017-12-29T08:00:17.025Z,1.53
2017-12-29T08:02:43.765Z,1.27
2017-12-29T08:05:10.466Z,2.33
2017-12-29T08:07:37.181Z,2.53
2017-12-29T08:10:03.913Z,1.67
2017-12-29T08:12:30.649Z,1.77
2017-12-29T08:14:57.353Z,1.40
2017-12-29T08:17:24.073Z,1.07
2017-12-29T08:19:50.806Z,1.07
2017-12-29T08:22:17.522Z,1.60
2017-12-29T08:24:44.245Z,0.83
2017-12-29T08:27:10.949Z,2.40
2017-12-29T08:29:37.669Z,1.10
2017-12-29T08:32:04.406Z,2.43
2017-12-29T08:34:31.115Z,3.03
2017-12-29T08:36:57.820Z,1.73
2017-12-29T08:39:24.562Z,1.13
2017-12-29T08:41:51.268Z,1.43
2017-12-29T08:44:17.982Z,2.13
2017-12-29T08:46:44.690Z,5.23
2017-12-29T08:49:11.410Z,1.20
2017-12-29T08:51:38.129Z,1.80
2017-12-29T08:54:04.867Z,3.63
2017-12-29T08:56:31.568Z,1.90
2017-12-29T08:58:58.307Z,1.20
2017-12-29T09:01:25.058Z,1.53
2017-12-29T09:03:51.788Z,7.13
2017-12-29T09:06:18.498Z,2.50
2017-12-29T09:08:45.222Z,1.10
2017-12-29T09:11:11.927Z,1.37
2017-12-29T09:13:38.699Z,1.17
2017-12-29T09:16:05.452Z,0.80
2017-12-29T09:18:32.161Z,1.13
2017-12-29T09:20:58.881Z,1.60
2017-12-29T09:23:25.625Z,5.70
2017-12-29T09:25:52.327Z,1.27
2017-12-29T09:28:19.047Z,2.40
2017-12-29T09:30:45.803Z,2.77
2017-12-29T09:33:12.505Z,1.90
2017-12-29T09:35:39.214Z,0.90
2017-12-29T09:38:05.977Z,2.73
2017-12-29T09:40:32.701Z,1.07
2017-12-29T09:42:59.412Z,2.93
2017-12-29T09:45:26.154Z,2.60
2017-12-29T09:47:52.866Z,1.20
2017-12-29T09:50:19.580Z,2.37
2017-12-29T09:52:46.317Z,0.97
2017-12-29T09:55:13.021Z,2.03
2017-12-29T09:57:39.730Z,2.93
2017-12-29T10:00:06.491Z,1.80
2017-12-29T10:02:33.184Z,0.97
2017-12-29T10:04:59.902Z,1.47
2017-12-29T10:07:26.613Z,2.40
2017-12-29T10:09:53.345Z,0.80
2017-12-29T10:12:20.064Z,0.90
2017-12-29T10:14:46.829Z,1.90
2017-12-29T10:17:13.567Z,1.10
2017-12-29T10:19:40.314Z,2.67
2017-12-29T10:22:07.048Z,1.20
2017-12-29T10:24:33.757Z,1.17
2017-12-29T10:27:00.491Z,1.70
2017-12-29T10:29:27.221Z,1.43
2017-12-29T10:31:53.934Z,2.20
2017-12-29T10:34:20.681Z,3.70
2017-12-29T10:36:47.397Z,0.90
2017-12-29T10:39:14.116Z,0.90
2017-12-29T10:41:40.833Z,0.90
2017-12-29T10:44:07.566Z,6.40
2017-12-29T10:46:34.275Z,3.47
2017-12-29T10:49:00.973Z,1.00
2017-12-29T10:51:27.712Z,0.83
2017-12-29T10:53:54.424Z,0.70
2017-12-29T10:56:21.121Z,1.47
2017-12-29T10:58:47.866Z,1.63
2017-12-29T11:01:14.627Z,1.33
2017-12-29T11:03:41.356Z,2.43
2017-12-29T11:06:08.080Z,1.17
2017-12-29T11:08:34.802Z,0.77
2017-12-29T11:11:01.526Z,1.80
2017-12-29T11:13:28.244Z,0.90
2017-12-29T11:15:54.945Z,1.43
2017-12-29T11:18:21.709Z,2.13
2017-12-29T11:20:48.428Z,0.97
2017-12-29T11:23:15.148Z,2.00
2017-12-29T11:25:41.873Z,3.80
2017-12-29T11:28:08.598Z,1.00
2017-12-29T11:30:35.335Z,1.40
2017-12-29T11:33:02.052Z,1.00
2017-12-29T11:35:28.790Z,1.60
2017-12-29T11:37:55.611Z,1.77
2017-12-29T11:40:22.324Z,1.20
2017-12-29T11:42:49.029Z,1.37
2017-12-29T11:45:15.732Z,0.70
2017-12-29T11:47:42.438Z,1.80
2017-12-29T11:50:09.161Z,1.67
2017-12-29T11:52:35.877Z,1.07
2017-12-29T11:55:02.592Z,1.53
2017-12-29T11:57:29.298Z,5.23
2017-12-29T11:59:56.022Z,1.30
2017-12-29T12:02:22.749Z,1.80
2017-12-29T12:04:49.472Z,1.47
2017-12-29T12:07:16.200Z,1.53
2017-12-29T12:09:42.903Z,1.90
2017-12-29T12:12:09.633Z,1.90
2017-12-29T12:14:36.334Z,0.83
2017-12-29T12:17:03.062Z,1.17
2017-12-29T12:19:29.797Z,2.20
2017-12-29T12:21:56.509Z,1.70
2017-12-29T12:24:23.204Z,1.27
2017-12-29T12:26:49.921Z,2.00
2017-12-29T12:29:16.630Z,0.60
2017-12-29T12:31:43.365Z,2.13
2017-12-29T12:34:10.088Z,1.13
2017-12-29T12:36:36.801Z,1.03
2017-12-29T12:39:03.538Z,2.20
2017-12-29T12:41:30.259Z,1.10
2017-12-29T12:43:56.962Z,1.10
2017-12-29T12:46:23.667Z,4.23
2017-12-29T12:48:50.418Z,4.43
2017-12-29T12:51:17.128Z,1.07
2017-12-29T12:53:43.839Z,0.97
2017-12-29T12:56:10.591Z,2.80
2017-12-29T12:58:37.294Z,0.90
2017-12-29T13:01:04.009Z,1.00
2017-12-29T13:03:30.741Z,1.70
2017-12-29T13:05:57.471Z,1.30
2017-12-29T13:08:24.191Z,1.10
2017-12-29T13:10:50.918Z,2.80
2017-12-29T13:13:17.630Z,0.90
2017-12-29T13:15:44.352Z,0.90
2017-12-29T13:18:11.075Z,1.90
2017-12-29T13:20:37.788Z,1.23
2017-12-29T13:23:04.510Z,0.83
2017-12-29T13:25:31.254Z,0.80
2017-12-29T13:27:57.991Z,2.50
2017-12-29T13:30:24.716Z,2.70
2017-12-29T13:32:51.442Z,0.80
2017-12-29T13:35:18.173Z,1.23
2017-12-29T13:37:44.882Z,2.13
2017-12-29T13:40:11.615Z,1.47
2017-12-29T13:42:38.344Z,1.67
2017-12-29T13:45:05.056Z,1.70
2017-12-29T13:47:31.781Z,4.10
2017-12-29T13:49:58.488Z,1.87
2017-12-29T13:52:25.197Z,1.53
2017-12-29T13:54:51.922Z,1.87
2017-12-29T13:57:18.626Z,0.90
2017-12-29T13:59:45.331Z,4.83
2017-12-29T14:02:12.065Z,1.57
2017-12-29T14:04:38.764Z,1.73
2017-12-29T14:07:05.466Z,1.50
2017-12-29T14:09:32.199Z,2.50
2017-12-29T14:11:58.942Z,1.20
2017-12-29T14:14:25.667Z,2.07
2017-12-29T14:16:52.410Z,3.90
2017-12-29T14:19:19.130Z,2.90
2017-12-29T14:21:45.854Z,1.33
2017-12-29T14:24:12.605Z,2.33
2017-12-29T14:26:39.329Z,4.70
2017-12-29T14:29:06.077Z,2.90
2017-12-29T14:31:32.807Z,1.77
2017-12-29T14:33:59.517Z,1.70
2017-12-29T14:36:26.247Z,1.57
2017-12-29T14:38:53.006Z,3.63
2017-12-29T14:41:19.733Z,1.70
2017-12-29T14:43:46.446Z,3.77
2017-12-29T14:46:13.162Z,1.60
2017-12-29T14:48:39.866Z,7.00
2017-12-29T14:51:06.587Z,2.20
2017-12-29T14:53:33.338Z,4.47
2017-12-29T14:56:00.074Z,3.03
2017-12-29T14:58:26.787Z,6.87
2017-12-29T15:00:53.510Z,4.47
2017-12-29T15:03:20.247Z,1.77
2017-12-29T15:05:46.984Z,4.17
2017-12-29T15:08:13.721Z,2.17
2017-12-29T15:10:40.430Z,6.30
2017-12-29T15:13:07.138Z,1.70
2017-12-29T15:15:33.848Z,2.50
2017-12-29T15:18:00.598Z,2.40
2017-12-29T15:20:27.316Z,7.47
2017-12-29T15:22:54.082Z,2.10
2017-12-29T15:25:20.810Z,1.47
2017-12-29T15:27:47.553Z,4.30
2017-12-29T15:30:14.286Z,2.40
2017-12-29T15:32:40.986Z,1.13
2017-12-29T15:35:07.711Z,1.90
2017-12-29T15:37:34.445Z,2.80
2017-12-29T15:40:01.146Z,3.03
2017-12-29T15:42:27.865Z,1.23
2017-12-29T15:44:54.617Z,1.00
2017-12-29T15:47:21.321Z,1.53
2017-12-29T15:49:48.040Z,0.97
2017-12-29T15:52:14.829Z,1.00
2017-12-29T15:54:41.528Z,0.80
2017-12-29T15:57:08.251Z,1.10
2017-12-29T15:59:35.005Z,1.00
2017-12-29T16:02:02.475Z,1.80
2017-12-29T16:04:29.185Z,1.10
2017-12-29T16:06:55.910Z,1.10
2017-12-29T16:09:22.642Z,0.70
2017-12-29T16:11:49.350Z,0.93
2017-12-29T16:14:16.057Z,2.93
2017-12-29T16:16:42.765Z,0.60
2017-12-29T16:19:09.489Z,5.50
2017-12-29T16:21:36.234Z,1.83
2017-12-29T16:24:02.949Z,1.10
2017-12-29T16:26:29.692Z,1.00
2017-12-29T16:28:56.432Z,1.08
2017-12-29T16:31:23.160Z,3.15
2017-12-29T16:33:49.871Z,1.13
2017-12-29T16:36:16.633Z,1.15
2017-12-29T16:38:43.359Z,1.67
2017-12-29T16:41:10.070Z,1.50
2017-12-29T16:43:36.806Z,10.80
2017-12-29T16:46:03.538Z,1.27
2017-12-29T16:48:30.290Z,1.35
2017-12-29T16:50:57.038Z,1.25
2017-12-29T16:53:23.782Z,4.68
2017-12-29T16:55:50.492Z,3.70
2017-12-29T16:58:17.219Z,2.30
2017-12-29T17:00:43.974Z,1.55
2017-12-29T17:03:10.685Z,2.65
2017-12-29T17:05:37.415Z,2.05
2017-12-29T17:08:04.145Z,5.03
2017-12-29T17:10:30.872Z,1.45
2017-12-29T17:12:57.584Z,5.27
2017-12-29T17:15:24.320Z,1.77
2017-12-29T17:17:51.017Z,1.60
2017-12-29T17:20:17.762Z,2.60
2017-12-29T17:22:44.497Z,2.80
2017-12-29T17:25:11.214Z,1.60
2017-12-29T17:27:37.935Z,1.90
2017-12-29T17:30:04.676Z,2.83
2017-12-29T17:32:31.390Z,1.98
2017-12-29T17:34:58.127Z,1.52
2017-12-29T17:37:24.857Z,4.28
2017-12-29T17:39:51.580Z,2.10
2017-12-29T17:42:18.342Z,3.55
2017-12-29T17:44:45.081Z,2.95
2017-12-29T17:47:11.824Z,3.00
2017-12-29T17:49:38.657Z,1.93
2017-12-29T17:52:05.387Z,2.03
2017-12-29T17:54:32.118Z,2.67
2017-12-29T17:56:58.865Z,3.17
2017-12-29T17:59:25.623Z,1.00
2017-12-29T18:01:52.345Z,1.40
2017-12-29T18:04:19.108Z,1.95
2017-12-29T18:06:45.830Z,3.05
2017-12-29T18:09:12.559Z,1.77
2017-12-29T18:11:39.323Z,3.75
2017-12-29T18:14:06.072Z,2.25
2017-12-29T18:16:32.849Z,4.43
2017-12-29T18:18:59.589Z,3.22
2017-12-29T18:21:26.343Z,1.95
2017-12-29T18:23:53.066Z,4.47
2017-12-29T18:26:19.822Z,8.75
2017-12-29T18:28:46.559Z,2.15
2017-12-29T18:31:13.422Z,5.12
2017-12-29T18:33:40.149Z,4.37
2017-12-29T18:36:06.896Z,3.78
2017-12-29T18:38:33.630Z,4.40
2017-12-29T18:41:00.405Z,6.90
2017-12-29T18:43:27.189Z,5.93
2017-12-29T18:45:53.942Z,3.67
2017-12-29T18:48:20.710Z,6.28
2017-12-29T18:50:47.457Z,4.12
2017-12-29T18:53:14.215Z,9.75
2017-12-29T18:55:41.010Z,10.57
2017-12-29T18:58:07.840Z,11.15
2017-12-29T19:00:34.595Z,6.12
2017-12-29T19:03:02.733Z,12.55
2017-12-29T19:05:29.473Z,14.95
2017-12-29T19:07:56.208Z,17.25
2017-12-29T19:10:22.954Z,45.15
2017-12-29T19:12:49.696Z,24.20
2017-12-29T19:15:16.450Z,13.88
2017-12-29T19:17:43.189Z,10.20
2017-12-29T19:20:09.910Z,15.73
2017-12-29T19:22:36.679Z,22.87
2017-12-29T19:25:03.458Z,27.80
2017-12-29T19:27:30.203Z,28.92
2017-12-29T19:29:57.063Z,19.77
2017-12-29T19:32:23.805Z,24.67
2017-12-29T19:34:50.537Z,25.33
2017-12-29T19:37:17.276Z,22.58
2017-12-29T19:39:44.029Z,19.17
2017-12-29T19:42:10.799Z,16.30
2017-12-29T19:44:37.558Z,11.77
2017-12-29T19:47:04.353Z,9.18
2017-12-29T19:49:31.081Z,12.68
2017-12-29T19:51:57.836Z,13.65
2017-12-29T19:54:24.610Z,14.30
2017-12-29T19:56:51.335Z,11.88
2017-12-29T19:59:18.114Z,9.05
2017-12-29T20:01:44.850Z,8.75
2017-12-29T20:04:11.587Z,12.43
2017-12-29T20:06:38.324Z,12.25
2017-12-29T20:09:05.070Z,12.70
2017-12-29T20:11:31.780Z,11.43
2017-12-29T20:13:58.506Z,10.75
2017-12-29T20:16:25.254Z,14.45
2017-12-29T20:18:51.986Z,13.05
2017-12-29T20:21:18.706Z,14.77
2017-12-29T20:23:45.469Z,22.20
2017-12-29T20:26:12.215Z,22.83
2017-12-29T20:28:38.959Z,22.92
2017-12-29T20:31:05.727Z,21.77
2017-12-29T20:33:32.476Z,23.70
2017-12-29T20:35:59.249Z,18.42
2017-12-29T20:38:26.025Z,20.73
2017-12-29T20:40:52.754Z,18.35
2017-12-29T20:43:19.484Z,18.62
2017-12-29T20:45:46.274Z,16.30
2017-12-29T20:48:12.994Z,16.12
2017-12-29T20:50:39.735Z,15.48
2017-12-29T20:53:06.488Z,14.40
2017-12-29T20:55:33.251Z,14.23
2017-12-29T20:57:59.974Z,9.20
2017-12-29T21:00:26.701Z,17.02
2017-12-29T21:02:53.417Z,12.07
2017-12-29T21:05:20.239Z,15.32
2017-12-29T21:07:46.984Z,13.05
2017-12-29T21:10:13.694Z,9.13
2017-12-29T21:12:40.423Z,11.20
2017-12-29T21:15:07.193Z,10.95
2017-12-29T21:17:33.940Z,13.07
2017-12-29T21:20:00.666Z,10.35
2017-12-29T21:22:29.099Z,12.63
2017-12-29T21:24:55.947Z,9.05
2017-12-29T21:27:38.738Z,17.50
2017-12-29T21:30:05.518Z,10.50
2017-12-29T21:32:32.240Z,12.23
2017-12-29T21:34:58.992Z,8.18
2017-12-29T21:37:25.720Z,11.52
2017-12-29T21:39:52.438Z,9.73
2017-12-29T21:42:19.198Z,7.40
2017-12-29T21:44:45.959Z,5.60
2017-12-29T21:47:13.568Z,7.07
2017-12-29T21:49:40.297Z,9.45
2017-12-29T21:52:07.038Z,5.68
2017-12-29T21:54:34.079Z,8.10
2017-12-29T21:57:00.857Z,6.55
2017-12-29T21:59:27.584Z,7.10
2017-12-29T22:01:54.324Z,7.65
2017-12-29T22:04:21.044Z,9.30
2017-12-29T22:06:47.766Z,10.45
2017-12-29T22:09:14.506Z,8.50
2017-12-29T22:11:41.232Z,7.40
2017-12-29T22:14:07.959Z,5.50
2017-12-29T22:16:34.681Z,5.93
2017-12-29T22:19:01.412Z,8.38
2017-12-29T22:21:28.195Z,6.05
2017-12-29T22:23:54.910Z,6.12
2017-12-29T22:26:21.662Z,7.05
2017-12-29T22:28:48.950Z,8.38
2017-12-29T22:31:15.672Z,11.35
2017-12-29T22:33:42.401Z,9.13
2017-12-29T22:36:09.117Z,7.80
2017-12-29T22:38:35.837Z,7.55
2017-12-29T22:41:02.599Z,10.50
2017-12-29T22:43:29.327Z,8.70
2017-12-29T22:45:56.034Z,6.50
2017-12-29T22:48:22.766Z,12.07
2017-12-29T22:50:49.489Z,9.07
2017-12-29T22:53:16.202Z,9.50
2017-12-29T22:55:42.949Z,8.90
2017-12-29T22:58:09.666Z,9.00
2017-12-29T23:00:36.372Z,9.05
2017-12-29T23:03:03.117Z,9.35
2017-12-29T23:05:29.822Z,9.45
2017-12-29T23:07:56.542Z,11.35
2017-12-29T23:10:23.309Z,8.25
2017-12-29T23:12:50.010Z,7.47
2017-12-29T23:15:16.789Z,8.88
2017-12-29T23:17:43.498Z,11.68
2017-12-29T23:20:10.197Z,9.82
2017-12-29T23:22:36.920Z,13.52
2017-12-29T23:25:03.656Z,10.57
2017-12-29T23:27:30.385Z,12.25
2017-12-29T23:29:57.127Z,11.73
2017-12-29T23:32:23.844Z,11.48
2017-12-29T23:34:50.581Z,18.33
2017-12-29T23:37:17.301Z,8.75
2017-12-29T23:39:44.040Z,8.35
2017-12-29T23:42:10.777Z,10.32
2017-12-29T23:44:37.486Z,11.05
2017-12-29T23:47:04.237Z,11.27
2017-12-29T23:49:30.953Z,15.93
2017-12-29T23:51:57.665Z,11.57
2017-12-29T23:54:24.405Z,14.15
2017-12-29T23:56:51.138Z,13.25
2017-12-29T23:59:17.845Z,12.32
